Time;durP1;ratioP1;P1;durP2;ratioP2;P2;SDS_P1;SDS_P2;PMS_P1;PMS_P2;Temp;Humidity;BMP_temperature;BMP_pressure;BME280_temperature;BME280_humidity;BME280_pressure;Samples;Min_cycle;Max_cycle;Signal;HPM_P1;HPM_P2
2022/05/16 00:00:38;;;;;;;8.73;7.57;;;;;;;;;;5034602;28;20576;-82
2022/05/16 00:03:07;;;;;;;6.60;6.00;;;;;;;;;;5034467;28;20198;-82
2022/05/16 00:05:35;;;;;;;7.10;6.50;;;;;;;;;;5034285;28;20199;-82
2022/05/16 00:08:02;;;;;;;8.57;6.40;;;;;;;;;;5034380;28;20209;-82
2022/05/16 00:10:31;;;;;;;6.13;5.57;;;;;;;;;;5033821;28;20681;-82
2022/05/16 00:12:59;;;;;;;6.33;5.83;;;;;;;;;;5034194;28;20230;-82
2022/05/16 00:15:26;;;;;;;7.30;6.70;;;;;;;;;;5034033;28;20285;-82
2022/05/16 00:17:54;;;;;;;7.70;6.17;;;;;;;;;;5033990;28;20195;-82
2022/05/16 00:20:21;;;;;;;6.10;5.60;;;;;;;;;;5033948;28;20203;-82
2022/05/16 00:22:48;;;;;;;7.13;6.23;;;;;;;;;;5033985;28;20725;-81
2022/05/16 00:25:16;;;;;;;7.20;6.50;;;;;;;;;;5033895;28;20237;-82
2022/05/16 00:27:46;;;;;;;6.83;6.33;;;;;;;;;;5034141;28;20581;-82
2022/05/16 00:30:15;;;;;;;7.70;7.20;;;;;;;;;;5033998;28;20223;-82
2022/05/16 00:32:42;;;;;;;8.33;7.10;;;;;;;;;;5033900;28;20202;-82
2022/05/16 00:35:10;;;;;;;7.57;6.97;;;;;;;;;;5033699;28;20199;-81
2022/05/16 00:37:37;;;;;;;7.57;6.93;;;;;;;;;;5033834;28;20689;-82
2022/05/16 00:40:06;;;;;;;7.37;6.77;;;;;;;;;;5033935;28;20213;-82
2022/05/16 00:42:33;;;;;;;6.77;6.27;;;;;;;;;;5033744;28;20674;-82
2022/05/16 00:45:02;;;;;;;8.00;6.67;;;;;;;;;;5033843;28;20585;-81
2022/05/16 00:47:29;;;;;;;7.43;6.47;;;;;;;;;;5033861;28;20198;-82
2022/05/16 00:49:58;;;;;;;10.57;7.47;;;;;;;;;;5033451;28;20198;-82
2022/05/16 00:52:27;;;;;;;6.83;6.33;;;;;;;;;;5033592;28;20225;-82
2022/05/16 00:54:56;;;;;;;8.40;7.80;;;;;;;;;;5032888;28;20780;-82
2022/05/16 00:57:26;;;;;;;9.40;8.70;;;;;;;;;;5033482;28;20199;-82
2022/05/16 00:59:59;;;;;;;9.47;8.47;;;;;;;;;;5033170;28;20194;-82
2022/05/16 01:05:13;;;;;;;10.20;8.27;;;;;;;;;;5033383;28;20190;-82
2022/05/16 01:07:43;;;;;;;9.27;8.47;;;;;;;;;;5033540;28;20629;-82
2022/05/16 01:10:13;;;;;;;8.63;7.37;;;;;;;;;;5032993;28;20203;-82
2022/05/16 01:12:43;;;;;;;8.57;7.87;;;;;;;;;;5033112;28;20190;-82
2022/05/16 01:15:11;;;;;;;9.53;8.73;;;;;;;;;;5032667;28;20324;-82
2022/05/16 01:17:40;;;;;;;9.23;8.43;;;;;;;;;;5033298;28;20602;-82
2022/05/16 01:20:10;;;;;;;9.20;8.50;;;;;;;;;;5032739;28;20205;-82
2022/05/16 01:22:40;;;;;;;9.03;8.23;;;;;;;;;;5032859;28;20230;-82
2022/05/16 01:25:10;;;;;;;10.20;9.30;;;;;;;;;;5032565;28;20182;-82
2022/05/16 01:27:43;;;;;;;10.07;9.27;;;;;;;;;;5033111;28;20186;-82
2022/05/16 01:30:11;;;;;;;11.13;10.33;;;;;;;;;;5032959;28;20205;-83
2022/05/16 01:32:38;;;;;;;9.93;9.23;;;;;;;;;;5033079;28;20203;-82
2022/05/16 01:35:07;;;;;;;9.47;8.77;;;;;;;;;;5032491;28;20229;-81
2022/05/16 01:40:20;;;;;;;9.30;8.43;;;;;;;;;;5032595;28;20189;-82
2022/05/16 01:42:47;;;;;;;8.30;7.60;;;;;;;;;;5032938;28;20195;-82
2022/05/16 01:45:15;;;;;;;8.83;8.23;;;;;;;;;;5032234;28;20195;-81
2022/05/16 01:47:42;;;;;;;9.53;8.67;;;;;;;;;;5032543;28;20687;-82
2022/05/16 01:50:09;;;;;;;10.23;9.43;;;;;;;;;;5032338;28;20195;-82
2022/05/16 01:52:37;;;;;;;9.30;8.60;;;;;;;;;;5032340;28;20205;-82
2022/05/16 01:55:05;;;;;;;10.53;9.70;;;;;;;;;;5032112;28;20226;-82
2022/05/16 01:57:33;;;;;;;9.97;9.17;;;;;;;;;;5032656;28;20579;-82
2022/05/16 02:00:01;;;;;;;10.07;9.37;;;;;;;;;;5014079;28;20242;-82
2022/05/16 02:02:28;;;;;;;10.37;9.53;;;;;;;;;;5012671;28;20563;-82
2022/05/16 02:04:55;;;;;;;9.57;8.70;;;;;;;;;;5012207;28;20204;-81
2022/05/16 02:07:22;;;;;;;9.43;8.73;;;;;;;;;;5012554;28;20199;-82
2022/05/16 02:09:49;;;;;;;10.00;9.10;;;;;;;;;;5012285;28;20210;-82
2022/05/16 02:12:17;;;;;;;10.00;9.10;;;;;;;;;;5012730;28;20571;-82
2022/05/16 02:14:45;;;;;;;9.60;8.90;;;;;;;;;;5012154;28;20227;-82
2022/05/16 02:17:12;;;;;;;9.43;8.63;;;;;;;;;;5012653;28;20239;-82
2022/05/16 02:19:40;;;;;;;9.87;8.97;;;;;;;;;;5011955;28;20203;-83
2022/05/16 02:25:07;;;;;;;9.30;8.10;;;;;;;;;;4951945;29;20204;-82
2022/05/16 02:27:34;;;;;;;9.53;8.57;;;;;;;;;;4952100;29;20205;-81
2022/05/16 02:30:02;;;;;;;8.90;8.10;;;;;;;;;;4978374;28;20230;-82
2022/05/16 02:32:30;;;;;;;10.10;9.07;;;;;;;;;;5012013;28;20200;-82
2022/05/16 02:34:57;;;;;;;9.43;8.63;;;;;;;;;;5011829;28;20266;-82
2022/05/16 02:37:24;;;;;;;9.33;8.53;;;;;;;;;;5012462;28;20203;-82
2022/05/16 02:39:51;;;;;;;10.13;9.30;;;;;;;;;;5011614;28;20203;-82
2022/05/16 02:42:19;;;;;;;9.50;8.80;;;;;;;;;;5012424;28;20221;-81
2022/05/16 02:44:46;;;;;;;10.07;9.17;;;;;;;;;;5012128;28;20191;-81
2022/05/16 02:47:16;;;;;;;10.83;9.93;;;;;;;;;;5012457;28;20561;-82
2022/05/16 02:49:44;;;;;;;8.83;8.17;;;;;;;;;;5011548;28;20640;-82
2022/05/16 02:52:12;;;;;;;9.90;9.00;;;;;;;;;;5012296;28;20234;-82
2022/05/16 02:54:39;;;;;;;9.37;8.53;;;;;;;;;;5011539;28;20259;-82
2022/05/16 02:57:07;;;;;;;9.73;8.93;;;;;;;;;;5011767;28;20582;-81
2022/05/16 02:59:35;;;;;;;9.97;9.00;;;;;;;;;;5011620;28;20688;-82
2022/05/16 03:02:05;;;;;;;9.93;9.03;;;;;;;;;;5012006;28;20290;-82
2022/05/16 03:04:34;;;;;;;9.90;9.10;;;;;;;;;;5011649;28;20195;-81
2022/05/16 03:07:01;;;;;;;9.80;9.00;;;;;;;;;;5011791;28;20199;-81
2022/05/16 03:09:29;;;;;;;10.50;9.60;;;;;;;;;;5016523;28;20206;-82
2022/05/16 03:11:57;;;;;;;10.43;9.63;;;;;;;;;;5025132;28;20206;-82
2022/05/16 03:14:24;;;;;;;10.57;9.77;;;;;;;;;;5031242;28;20227;-81
2022/05/16 03:16:51;;;;;;;11.47;10.43;;;;;;;;;;5024353;28;20213;-82
2022/05/16 03:19:18;;;;;;;10.47;9.67;;;;;;;;;;5011819;28;20204;-82
2022/05/16 03:21:47;;;;;;;10.73;9.83;;;;;;;;;;5011668;28;20208;-82
2022/05/16 03:24:14;;;;;;;11.67;10.47;;;;;;;;;;5011232;28;20290;-81
2022/05/16 03:26:42;;;;;;;12.37;11.30;;;;;;;;;;5011453;28;20211;-82
2022/05/16 03:29:11;;;;;;;13.77;12.70;;;;;;;;;;5011551;28;20672;-81
2022/05/16 03:31:39;;;;;;;12.97;11.83;;;;;;;;;;5018685;28;20196;-82
2022/05/16 03:34:07;;;;;;;13.53;12.40;;;;;;;;;;5014696;28;20223;-81
2022/05/16 03:36:35;;;;;;;13.30;12.20;;;;;;;;;;5028789;28;20206;-82
2022/05/16 03:41:49;;;;;;;12.30;11.17;;;;;;;;;;5017873;28;20206;-82
2022/05/16 03:44:16;;;;;;;14.00;12.80;;;;;;;;;;5014823;28;20218;-82
2022/05/16 03:46:43;;;;;;;14.10;12.90;;;;;;;;;;5034393;28;20195;-83
2022/05/16 03:49:11;;;;;;;11.93;10.93;;;;;;;;;;5034364;28;20207;-82
2022/05/16 03:51:39;;;;;;;12.83;11.47;;;;;;;;;;5034947;28;20268;-82
2022/05/16 03:54:07;;;;;;;12.47;11.40;;;;;;;;;;5034445;28;20258;-81
2022/05/16 03:56:35;;;;;;;11.33;10.43;;;;;;;;;;5034740;28;20207;-81
2022/05/16 03:59:02;;;;;;;10.53;9.73;;;;;;;;;;5022970;28;20196;-82
2022/05/16 04:01:29;;;;;;;12.00;10.17;;;;;;;;;;5026101;28;20225;-81
2022/05/16 04:03:57;;;;;;;10.77;9.77;;;;;;;;;;5034195;28;20199;-81
2022/05/16 04:06:24;;;;;;;10.73;9.93;;;;;;;;;;5027642;28;20569;-82
2022/05/16 04:08:52;;;;;;;10.80;10.00;;;;;;;;;;5014506;28;20607;-81
2022/05/16 04:11:21;;;;;;;11.13;10.07;;;;;;;;;;5014341;28;20204;-81
2022/05/16 04:13:48;;;;;;;11.57;10.57;;;;;;;;;;5025283;28;20298;-81
2022/05/16 04:16:16;;;;;;;11.90;10.07;;;;;;;;;;5014235;28;20295;-84
2022/05/16 04:18:44;;;;;;;10.37;9.57;;;;;;;;;;5024166;28;20230;-82
2022/05/16 04:21:12;;;;;;;11.50;10.40;;;;;;;;;;5023053;28;20203;-83
2022/05/16 04:23:39;;;;;;;10.07;9.27;;;;;;;;;;5014219;28;20235;-86
2022/05/16 04:26:06;;;;;;;10.73;9.83;;;;;;;;;;5024836;28;20292;-84
2022/05/16 04:28:35;;;;;;;9.90;9.00;;;;;;;;;;5034145;28;20203;-84
2022/05/16 04:31:02;;;;;;;10.70;9.90;;;;;;;;;;5030698;28;20290;-84
2022/05/16 04:33:31;;;;;;;10.77;9.87;;;;;;;;;;5034348;28;20222;-84
2022/05/16 04:35:58;;;;;;;10.87;9.93;;;;;;;;;;5022323;28;20668;-81
2022/05/16 04:38:26;;;;;;;10.90;9.17;;;;;;;;;;5034055;28;20651;-82
2022/05/16 04:43:39;;;;;;;10.37;9.57;;;;;;;;;;5013776;28;20187;-83
2022/05/16 04:46:07;;;;;;;9.23;8.43;;;;;;;;;;5016135;28;20199;-83
2022/05/16 04:48:34;;;;;;;9.90;9.07;;;;;;;;;;5013839;28;20613;-83
2022/05/16 04:51:01;;;;;;;10.60;8.30;;;;;;;;;;5013624;28;20201;-83
2022/05/16 04:53:29;;;;;;;8.83;8.03;;;;;;;;;;5013880;28;20693;-84
2022/05/16 04:55:56;;;;;;;8.77;7.97;;;;;;;;;;5013512;28;20327;-84
2022/05/16 04:58:23;;;;;;;9.27;8.30;;;;;;;;;;5013728;28;20204;-83
2022/05/16 05:00:52;;;;;;;9.57;8.67;;;;;;;;;;5013519;28;20201;-83
2022/05/16 05:03:19;;;;;;;8.47;7.87;;;;;;;;;;5014000;28;20619;-83
2022/05/16 05:05:47;;;;;;;8.67;7.97;;;;;;;;;;5013363;28;20197;-84
2022/05/16 05:08:14;;;;;;;8.30;7.60;;;;;;;;;;5013027;28;20710;-82
2022/05/16 05:16:14;;;;;;;9.17;8.37;;;;;;;;;;5013352;28;20594;-83
2022/05/16 05:18:42;;;;;;;9.27;8.53;;;;;;;;;;5013240;28;20192;-83
2022/05/16 05:21:09;;;;;;;9.03;8.23;;;;;;;;;;5013238;28;20740;-83
2022/05/16 05:23:38;;;;;;;8.37;7.77;;;;;;;;;;5013037;28;20229;-83
2022/05/16 05:26:07;;;;;;;8.10;7.50;;;;;;;;;;5013419;28;20229;-84
2022/05/16 05:28:34;;;;;;;8.90;8.10;;;;;;;;;;5013283;28;20206;-84
2022/05/16 05:31:02;;;;;;;9.47;8.67;;;;;;;;;;5013447;28;20554;-83
2022/05/16 05:33:30;;;;;;;9.30;8.60;;;;;;;;;;5013183;28;20201;-84
2022/05/16 05:35:58;;;;;;;8.73;8.03;;;;;;;;;;5013226;28;20226;-84
2022/05/16 05:38:25;;;;;;;9.57;8.67;;;;;;;;;;5012800;28;20213;-83
2022/05/16 05:40:52;;;;;;;11.17;10.07;;;;;;;;;;5012938;28;20202;-84
2022/05/16 05:43:19;;;;;;;10.47;9.57;;;;;;;;;;5013538;28;20693;-84
2022/05/16 05:45:47;;;;;;;9.90;9.20;;;;;;;;;;5012727;28;20293;-84
2022/05/16 05:48:14;;;;;;;10.47;9.47;;;;;;;;;;5012643;28;20224;-84
2022/05/16 05:50:42;;;;;;;11.00;10.10;;;;;;;;;;5012734;28;20206;-84
2022/05/16 05:53:10;;;;;;;11.07;9.97;;;;;;;;;;5013055;28;20256;-84
2022/05/16 05:55:37;;;;;;;11.27;10.20;;;;;;;;;;5011810;28;20269;-84
2022/05/16 05:58:04;;;;;;;11.47;10.37;;;;;;;;;;5012783;28;20206;-85
2022/05/16 06:00:31;;;;;;;11.00;10.10;;;;;;;;;;5012703;28;20638;-84
2022/05/16 06:03:00;;;;;;;10.27;9.47;;;;;;;;;;5012702;28;20215;-85
2022/05/16 06:05:28;;;;;;;10.60;9.60;;;;;;;;;;5012808;28;20203;-84
2022/05/16 06:07:57;;;;;;;10.93;9.83;;;;;;;;;;5012375;28;20195;-84
2022/05/16 06:10:24;;;;;;;9.37;8.57;;;;;;;;;;5012472;28;20673;-84
2022/05/16 06:12:51;;;;;;;10.07;9.27;;;;;;;;;;5012886;28;20228;-84
2022/05/16 06:15:19;;;;;;;10.10;9.33;;;;;;;;;;5012112;28;20321;-84
2022/05/16 06:17:46;;;;;;;9.83;8.83;;;;;;;;;;5012436;28;20238;-84
2022/05/16 06:20:14;;;;;;;10.97;10.07;;;;;;;;;;5012275;28;20668;-84
2022/05/16 06:22:42;;;;;;;10.27;9.37;;;;;;;;;;5012273;28;20231;-84
2022/05/16 06:27:57;;;;;;;10.63;9.73;;;;;;;;;;5012403;28;20187;-83
2022/05/16 06:30:24;;;;;;;10.53;9.37;;;;;;;;;;5012411;28;20226;-84
2022/05/16 06:32:52;;;;;;;10.53;9.63;;;;;;;;;;5012032;28;20203;-84
2022/05/16 06:35:19;;;;;;;10.50;9.57;;;;;;;;;;5011934;28;20265;-84
2022/05/16 06:37:47;;;;;;;9.80;9.00;;;;;;;;;;5012251;28;20286;-84
2022/05/16 06:40:17;;;;;;;9.67;8.77;;;;;;;;;;5012193;28;20199;-84
2022/05/16 06:42:44;;;;;;;10.40;9.50;;;;;;;;;;5011964;28;20611;-84
2022/05/16 06:45:13;;;;;;;13.00;9.60;;;;;;;;;;5012003;28;20199;-84
2022/05/16 06:47:40;;;;;;;9.60;8.83;;;;;;;;;;5012404;28;20222;-85
2022/05/16 06:50:08;;;;;;;10.40;9.47;;;;;;;;;;5011982;28;20210;-84
2022/05/16 06:52:35;;;;;;;10.70;9.90;;;;;;;;;;5011922;28;20207;-84
2022/05/16 06:55:03;;;;;;;10.37;9.57;;;;;;;;;;5011804;28;20233;-84
2022/05/16 06:57:33;;;;;;;9.70;8.90;;;;;;;;;;5012012;28;20214;-84
2022/05/16 07:00:00;;;;;;;9.40;8.70;;;;;;;;;;5011743;28;20183;-84
2022/05/16 07:02:28;;;;;;;10.10;9.30;;;;;;;;;;5012307;28;20204;-84
2022/05/16 07:04:55;;;;;;;9.70;8.80;;;;;;;;;;5011733;28;20192;-83
2022/05/16 07:07:22;;;;;;;10.40;9.43;;;;;;;;;;5014259;28;20196;-84
2022/05/16 07:09:49;;;;;;;9.57;8.57;;;;;;;;;;5015426;28;20215;-84
2022/05/16 07:12:17;;;;;;;11.03;9.90;;;;;;;;;;5015843;28;20631;-84
2022/05/16 07:14:47;;;;;;;9.90;9.03;;;;;;;;;;5015712;28;20199;-84
2022/05/16 07:17:14;;;;;;;10.73;9.80;;;;;;;;;;5015556;28;20672;-84
2022/05/16 07:19:42;;;;;;;9.53;8.73;;;;;;;;;;5015702;28;20222;-84
2022/05/16 07:22:10;;;;;;;7.90;7.30;;;;;;;;;;5015708;28;20634;-83
2022/05/16 07:24:38;;;;;;;9.53;8.57;;;;;;;;;;5015368;28;20270;-84
2022/05/16 07:29:51;;;;;;;8.50;7.70;;;;;;;;;;5015484;28;20187;-83
2022/05/16 07:32:19;;;;;;;7.73;7.17;;;;;;;;;;5015335;28;20199;-84
2022/05/16 07:34:46;;;;;;;12.27;8.63;;;;;;;;;;5015185;28;20290;-84
2022/05/16 07:37:13;;;;;;;9.43;8.50;;;;;;;;;;5015083;28;20231;-84
2022/05/16 07:39:40;;;;;;;8.87;8.13;;;;;;;;;;5015136;28;20288;-84
2022/05/16 07:42:10;;;;;;;9.27;8.43;;;;;;;;;;5015196;28;20675;-84
2022/05/16 07:44:37;;;;;;;8.83;7.90;;;;;;;;;;5015021;28;20219;-84
2022/05/16 07:47:07;;;;;;;8.67;7.93;;;;;;;;;;5015497;28;20200;-84
2022/05/16 07:49:34;;;;;;;10.27;9.27;;;;;;;;;;5014669;28;20230;-83
2022/05/16 07:52:01;;;;;;;8.97;8.07;;;;;;;;;;5015032;28;20204;-84
2022/05/16 07:54:28;;;;;;;10.30;9.43;;;;;;;;;;5014742;28;20683;-84
2022/05/16 07:56:56;;;;;;;9.47;8.60;;;;;;;;;;5014983;28;20620;-83
2022/05/16 07:59:23;;;;;;;8.60;7.73;;;;;;;;;;5014766;28;20203;-85
2022/05/16 08:01:51;;;;;;;9.93;9.03;;;;;;;;;;5014847;28;20239;-84
2022/05/16 08:04:20;;;;;;;9.23;8.53;;;;;;;;;;5014663;28;20207;-84
2022/05/16 08:06:47;;;;;;;8.93;8.10;;;;;;;;;;5015085;28;20732;-83
2022/05/16 08:11:59;;;;;;;8.60;7.30;;;;;;;;;;5015080;28;20253;-84
2022/05/16 08:14:26;;;;;;;8.90;7.77;;;;;;;;;;5014519;28;20206;-84
2022/05/16 08:16:53;;;;;;;8.77;8.07;;;;;;;;;;5014475;28;20270;-84
2022/05/16 08:19:22;;;;;;;7.80;7.13;;;;;;;;;;5013703;28;20286;-84
2022/05/16 08:21:49;;;;;;;8.63;7.93;;;;;;;;;;5014446;28;20227;-84
2022/05/16 08:24:17;;;;;;;9.67;8.87;;;;;;;;;;5014202;28;20243;-84
2022/05/16 08:26:44;;;;;;;9.90;8.73;;;;;;;;;;5014779;28;20226;-84
2022/05/16 08:29:11;;;;;;;9.63;8.73;;;;;;;;;;5014317;28;20584;-84
2022/05/16 08:31:39;;;;;;;9.20;8.37;;;;;;;;;;5014299;28;20290;-85
2022/05/16 08:34:06;;;;;;;10.30;9.33;;;;;;;;;;5014321;28;20206;-84
2022/05/16 08:42:09;;;;;;;12.10;9.73;;;;;;;;;;5014654;28;20562;-85
2022/05/16 08:44:39;;;;;;;9.50;8.60;;;;;;;;;;5014275;28;20589;-85
2022/05/16 08:47:17;;;;;;;10.13;9.33;;;;;;;;;;5014516;28;20195;-85
2022/05/16 08:49:49;;;;;;;10.50;9.50;;;;;;;;;;5014377;28;20549;-85
2022/05/16 08:52:26;;;;;;;11.50;9.53;;;;;;;;;;5014386;28;20269;-86
2022/05/16 08:54:59;;;;;;;10.57;9.57;;;;;;;;;;5013826;28;20640;-86
2022/05/16 08:57:30;;;;;;;8.83;7.93;;;;;;;;;;5014289;28;20210;-85
2022/05/16 09:00:02;;;;;;;9.33;8.53;;;;;;;;;;5014060;28;20278;-86
2022/05/16 09:02:31;;;;;;;9.60;8.67;;;;;;;;;;5014422;28;20184;-86
2022/05/16 09:05:07;;;;;;;8.13;7.43;;;;;;;;;;5013794;28;20214;-86
2022/05/16 09:07:43;;;;;;;7.30;6.77;;;;;;;;;;5013788;28;20191;-86
2022/05/16 09:10:14;;;;;;;8.37;7.57;;;;;;;;;;5013816;28;20218;-85
2022/05/16 09:12:47;;;;;;;8.00;7.20;;;;;;;;;;5013894;28;20652;-86
2022/05/16 09:15:23;;;;;;;8.77;8.00;;;;;;;;;;5014031;28;20214;-86
2022/05/16 09:18:03;;;;;;;9.57;8.77;;;;;;;;;;5013765;28;20237;-87
2022/05/16 09:20:39;;;;;;;10.50;9.60;;;;;;;;;;5014208;28;20245;-87
2022/05/16 09:23:15;;;;;;;8.90;8.20;;;;;;;;;;5013749;28;20230;-86
2022/05/16 09:25:47;;;;;;;10.93;10.13;;;;;;;;;;5013657;28;20222;-87
2022/05/16 09:31:13;;;;;;;10.10;9.20;;;;;;;;;;4966244;28;20195;-87
2022/05/16 09:33:45;;;;;;;11.30;8.77;;;;;;;;;;5013916;28;20263;-87
2022/05/16 09:36:15;;;;;;;10.40;9.50;;;;;;;;;;5013858;28;20653;-87
2022/05/16 09:38:46;;;;;;;12.23;11.20;;;;;;;;;;5013888;28;20198;-87
2022/05/16 09:41:22;;;;;;;12.13;10.93;;;;;;;;;;5013432;28;20195;-87
2022/05/16 09:43:58;;;;;;;12.13;11.07;;;;;;;;;;5013924;28;20571;-86
2022/05/16 09:46:34;;;;;;;11.50;10.53;;;;;;;;;;5013594;28;20190;-86
2022/05/16 09:49:11;;;;;;;14.83;11.80;;;;;;;;;;5013647;28;20614;-87
2022/05/16 09:51:47;;;;;;;11.93;11.13;;;;;;;;;;5013075;28;20191;-87
2022/05/16 09:54:28;;;;;;;12.07;10.97;;;;;;;;;;5013461;28;20183;-86
2022/05/16 09:57:16;;;;;;;14.07;8.93;;;;;;;;;;5013314;28;20298;-87
2022/05/16 09:59:46;;;;;;;9.90;9.10;;;;;;;;;;5013395;28;20570;-87
2022/05/16 10:02:17;;;;;;;10.83;9.90;;;;;;;;;;5013500;28;20195;-87
2022/05/16 10:04:46;;;;;;;10.03;9.20;;;;;;;;;;5013069;28;20191;-85
2022/05/16 10:07:14;;;;;;;12.27;10.40;;;;;;;;;;5012880;28;20207;-87
2022/05/16 10:09:47;;;;;;;10.33;9.30;;;;;;;;;;5012900;28;20290;-86
2022/05/16 10:12:16;;;;;;;9.63;8.83;;;;;;;;;;5013110;28;20182;-86
2022/05/16 10:14:44;;;;;;;11.43;10.50;;;;;;;;;;5012741;28;20201;-86
2022/05/16 10:17:16;;;;;;;10.73;9.80;;;;;;;;;;5012824;28;20229;-86
2022/05/16 10:19:43;;;;;;;10.93;9.93;;;;;;;;;;5013146;28;20188;-87
2022/05/16 10:22:17;;;;;;;10.10;9.33;;;;;;;;;;5012496;28;20289;-86
2022/05/16 10:24:49;;;;;;;10.37;9.33;;;;;;;;;;5012657;28;20278;-87
2022/05/16 10:27:19;;;;;;;9.63;8.83;;;;;;;;;;5012756;28;20187;-86
2022/05/16 10:29:51;;;;;;;9.77;8.70;;;;;;;;;;5012585;28;20253;-86
2022/05/16 10:35:13;;;;;;;10.73;9.67;;;;;;;;;;5012658;28;20238;-86
2022/05/16 10:37:43;;;;;;;10.17;9.37;;;;;;;;;;5012556;28;20208;-87
2022/05/16 10:40:27;;;;;;;10.70;9.87;;;;;;;;;;5012673;28;20208;-86
2022/05/16 10:43:03;;;;;;;9.77;8.87;;;;;;;;;;5012361;28;20567;-87
2022/05/16 10:45:32;;;;;;;10.13;9.27;;;;;;;;;;5012704;28;20588;-86
2022/05/16 10:48:05;;;;;;;9.83;8.97;;;;;;;;;;5012491;28;20206;-86
2022/05/16 10:50:37;;;;;;;11.30;8.77;;;;;;;;;;5012698;28;20188;-86
2022/05/16 10:53:09;;;;;;;9.97;8.67;;;;;;;;;;5012785;28;20569;-87
2022/05/16 10:55:42;;;;;;;10.23;9.43;;;;;;;;;;5012682;28;20731;-86
2022/05/16 10:58:20;;;;;;;9.77;8.60;;;;;;;;;;5012709;28;20238;-87
2022/05/16 11:00:53;;;;;;;9.70;8.80;;;;;;;;;;5012481;28;20183;-85
2022/05/16 11:03:45;;;;;;;9.77;8.87;;;;;;;;;;5012304;28;20196;-86
2022/05/16 11:06:29;;;;;;;10.03;9.10;;;;;;;;;;5012505;28;20234;-87
2022/05/16 11:09:01;;;;;;;10.10;9.30;;;;;;;;;;5012230;28;20682;-86
2022/05/16 11:11:35;;;;;;;10.20;9.27;;;;;;;;;;5012336;28;20198;-86
2022/05/16 11:14:06;;;;;;;10.20;9.20;;;;;;;;;;5012172;28;20631;-86
2022/05/16 11:16:36;;;;;;;11.60;10.43;;;;;;;;;;5011987;28;20203;-86
2022/05/16 11:19:15;;;;;;;9.87;9.10;;;;;;;;;;5012616;28;20200;-87
2022/05/16 11:21:47;;;;;;;9.67;8.77;;;;;;;;;;5012411;28;20219;-86
2022/05/16 11:24:26;;;;;;;11.20;10.30;;;;;;;;;;5011856;28;20334;-86
2022/05/16 11:27:12;;;;;;;10.83;9.77;;;;;;;;;;5012430;28;20646;-87
2022/05/16 11:29:46;;;;;;;11.97;10.77;;;;;;;;;;5012283;28;20194;-87
2022/05/16 11:32:28;;;;;;;12.20;11.10;;;;;;;;;;5012789;28;20190;-88
2022/05/16 11:35:02;;;;;;;18.23;14.40;;;;;;;;;;5012249;28;20283;-86
2022/05/16 11:37:43;;;;;;;13.33;12.00;;;;;;;;;;5012163;28;20218;-86
2022/05/16 11:40:18;;;;;;;11.70;10.60;;;;;;;;;;5011752;28;20648;-86
2022/05/16 11:42:51;;;;;;;13.83;12.17;;;;;;;;;;5012081;28;20729;-86
2022/05/16 11:45:28;;;;;;;12.30;11.30;;;;;;;;;;5011921;28;20544;-85
2022/05/16 11:47:59;;;;;;;13.27;11.97;;;;;;;;;;5011786;28;20188;-85
2022/05/16 11:50:28;;;;;;;14.17;12.80;;;;;;;;;;5011709;28;20263;-85
2022/05/16 11:53:06;;;;;;;13.03;11.93;;;;;;;;;;5011891;28;20278;-86
2022/05/16 12:01:07;;;;;;;13.60;12.40;;;;;;;;;;5014902;28;20258;-84
2022/05/16 12:03:37;;;;;;;17.40;15.80;;;;;;;;;;5014690;28;20188;-85
2022/05/16 12:06:33;;;;;;;12.07;11.07;;;;;;;;;;5014670;28;20203;-84
2022/05/16 12:09:16;;;;;;;27.50;23.60;;;;;;;;;;4970365;28;20209;-83
2022/05/16 12:11:53;;;;;;;19.70;13.47;;;;;;;;;;5015007;28;20192;-84
2022/05/16 12:14:28;;;;;;;14.00;11.10;;;;;;;;;;5014754;28;20563;-83
2022/05/16 12:17:02;;;;;;;13.83;12.43;;;;;;;;;;5014549;28;20297;-83
2022/05/16 12:19:33;;;;;;;12.73;11.37;;;;;;;;;;5014429;28;20246;-82
2022/05/16 12:22:04;;;;;;;13.63;12.37;;;;;;;;;;5014308;28;20199;-83
2022/05/16 12:24:34;;;;;;;13.10;11.80;;;;;;;;;;4975640;28;20196;-81
2022/05/16 12:27:06;;;;;;;12.07;11.03;;;;;;;;;;4975582;28;20688;-81
2022/05/16 12:29:52;;;;;;;12.33;11.43;;;;;;;;;;4975044;28;20189;-81
2022/05/16 12:32:44;;;;;;;18.90;11.93;;;;;;;;;;4975361;28;20189;-81
2022/05/16 12:35:14;;;;;;;13.50;12.30;;;;;;;;;;4975204;28;20284;-82
2022/05/16 12:37:42;;;;;;;14.33;12.70;;;;;;;;;;4975356;28;20221;-81
2022/05/16 12:40:15;;;;;;;14.00;11.50;;;;;;;;;;4974759;28;20212;-82
2022/05/16 12:43:06;;;;;;;13.80;12.57;;;;;;;;;;4975168;28;20248;-82
2022/05/16 12:46:13;;;;;;;13.93;12.47;;;;;;;;;;4974902;28;20570;-81
2022/05/16 12:48:55;;;;;;;14.43;13.23;;;;;;;;;;4954734;28;20209;-81
2022/05/16 12:51:37;;;;;;;14.20;13.07;;;;;;;;;;4974854;28;20284;-81
2022/05/16 12:54:24;;;;;;;13.73;12.67;;;;;;;;;;4974794;28;20190;-81
2022/05/16 12:56:53;;;;;;;13.40;12.13;;;;;;;;;;4974942;28;20213;-82
2022/05/16 12:59:35;;;;;;;13.97;12.87;;;;;;;;;;4974896;28;20209;-81
2022/05/16 13:02:13;;;;;;;14.27;13.13;;;;;;;;;;4974781;28;20280;-81
2022/05/16 13:04:56;;;;;;;12.87;11.53;;;;;;;;;;4973980;28;20200;-81
2022/05/16 13:07:31;;;;;;;13.77;12.57;;;;;;;;;;4974724;28;20200;-81
2022/05/16 13:10:04;;;;;;;13.83;12.73;;;;;;;;;;4974438;28;20668;-82
2022/05/16 13:12:40;;;;;;;13.60;12.43;;;;;;;;;;4974647;28;20724;-81
2022/05/16 13:15:11;;;;;;;12.23;11.13;;;;;;;;;;4974127;28;20193;-82
2022/05/16 13:17:41;;;;;;;14.10;12.93;;;;;;;;;;4974475;28;20213;-82
2022/05/16 13:20:12;;;;;;;12.97;11.97;;;;;;;;;;4974264;28;20196;-82
2022/05/16 13:22:43;;;;;;;12.90;11.80;;;;;;;;;;4983161;28;20230;-81
2022/05/16 13:25:11;;;;;;;13.27;12.13;;;;;;;;;;5013268;28;20603;-82
2022/05/16 13:30:24;;;;;;;14.03;12.63;;;;;;;;;;5013317;28;20186;-82
2022/05/16 13:32:53;;;;;;;15.57;14.33;;;;;;;;;;5013005;28;20246;-82
2022/05/16 13:35:28;;;;;;;12.93;11.83;;;;;;;;;;5012877;28;20596;-82
2022/05/16 13:37:56;;;;;;;13.13;11.97;;;;;;;;;;5013433;28;20615;-82
2022/05/16 13:40:26;;;;;;;11.77;10.80;;;;;;;;;;5012533;28;20203;-82
2022/05/16 13:42:54;;;;;;;13.10;12.00;;;;;;;;;;5013371;28;20231;-82
2022/05/16 13:45:26;;;;;;;11.83;10.83;;;;;;;;;;5013060;28;20207;-82
2022/05/16 13:48:03;;;;;;;12.47;11.47;;;;;;;;;;5013259;28;20604;-82
2022/05/16 13:50:32;;;;;;;10.57;9.63;;;;;;;;;;5012806;28;20671;-82
2022/05/16 13:53:00;;;;;;;11.20;10.00;;;;;;;;;;5012617;28;20293;-82
2022/05/16 13:55:29;;;;;;;11.97;10.77;;;;;;;;;;5012916;28;20290;-82
2022/05/16 13:57:57;;;;;;;12.20;11.03;;;;;;;;;;5012695;28;20254;-82
2022/05/16 14:00:36;;;;;;;11.57;10.67;;;;;;;;;;5012350;28;20210;-82
2022/05/16 14:03:09;;;;;;;12.20;11.10;;;;;;;;;;5012712;28;20187;-82
2022/05/16 14:05:41;;;;;;;10.47;9.47;;;;;;;;;;5018391;28;20195;-82
2022/05/16 14:08:20;;;;;;;12.30;11.20;;;;;;;;;;5032364;28;20245;-83
2022/05/16 14:10:47;;;;;;;14.30;10.93;;;;;;;;;;5031930;28;20210;-83
2022/05/16 14:13:19;;;;;;;11.50;10.50;;;;;;;;;;5032255;28;20198;-83
2022/05/16 14:15:51;;;;;;;11.83;10.90;;;;;;;;;;5030200;28;20237;-83
2022/05/16 14:18:25;;;;;;;9.47;8.40;;;;;;;;;;5031050;28;20710;-83
2022/05/16 14:20:56;;;;;;;10.60;9.63;;;;;;;;;;5030899;28;20586;-83
2022/05/16 14:23:44;;;;;;;10.43;9.50;;;;;;;;;;5031047;28;20234;-83
2022/05/16 14:26:18;;;;;;;11.23;10.40;;;;;;;;;;5030733;28;20206;-83
2022/05/16 14:28:47;;;;;;;12.63;11.13;;;;;;;;;;5029771;28;20194;-86
2022/05/16 14:31:20;;;;;;;11.00;9.90;;;;;;;;;;5031408;28;20272;-84
2022/05/16 14:33:54;;;;;;;11.00;10.03;;;;;;;;;;5030795;28;20202;-83
2022/05/16 14:36:27;;;;;;;10.23;9.33;;;;;;;;;;5030715;28;20693;-83
2022/05/16 14:38:55;;;;;;;10.67;9.80;;;;;;;;;;5030571;28;20233;-82
2022/05/16 14:41:23;;;;;;;11.43;10.50;;;;;;;;;;5029980;28;20222;-83
2022/05/16 14:44:02;;;;;;;11.93;10.90;;;;;;;;;;5030575;28;20198;-83
2022/05/16 14:46:44;;;;;;;10.83;9.73;;;;;;;;;;5030689;28;20190;-83
2022/05/16 14:49:13;;;;;;;10.87;10.07;;;;;;;;;;5030549;28;20206;-82
2022/05/16 14:51:41;;;;;;;10.80;9.93;;;;;;;;;;5030431;28;20199;-83
2022/05/16 14:54:16;;;;;;;9.40;8.60;;;;;;;;;;5030402;28;20562;-82
2022/05/16 14:56:43;;;;;;;11.63;10.63;;;;;;;;;;5031457;28;20193;-83
2022/05/16 14:59:10;;;;;;;10.37;9.53;;;;;;;;;;5031229;28;20222;-83
2022/05/16 15:04:23;;;;;;;8.50;7.80;;;;;;;;;;5029914;28;20182;-82
2022/05/16 15:06:51;;;;;;;7.80;7.20;;;;;;;;;;5031701;28;20225;-83
2022/05/16 15:09:21;;;;;;;8.50;8.00;;;;;;;;;;5031803;28;20273;-82
2022/05/16 15:11:50;;;;;;;8.17;7.47;;;;;;;;;;5020533;28;20208;-85
2022/05/16 15:14:19;;;;;;;8.60;7.80;;;;;;;;;;5011915;28;20738;-85
2022/05/16 15:16:47;;;;;;;8.80;8.00;;;;;;;;;;5021217;28;20214;-85
2022/05/16 15:19:14;;;;;;;8.40;7.70;;;;;;;;;;5011900;28;20322;-85
2022/05/16 15:21:46;;;;;;;9.30;8.43;;;;;;;;;;5011849;28;20290;-86
2022/05/16 15:24:18;;;;;;;9.33;7.80;;;;;;;;;;5011805;28;20235;-85
2022/05/16 15:26:45;;;;;;;9.93;9.13;;;;;;;;;;5021218;28;20706;-86
2022/05/16 15:29:12;;;;;;;10.30;8.07;;;;;;;;;;5035133;28;20554;-86
2022/05/16 15:31:39;;;;;;;10.37;9.47;;;;;;;;;;5035327;28;20207;-86
2022/05/16 15:34:07;;;;;;;9.17;8.43;;;;;;;;;;5035226;28;20210;-86
2022/05/16 15:36:34;;;;;;;9.57;8.80;;;;;;;;;;5035242;28;20198;-86
2022/05/16 15:39:03;;;;;;;9.87;8.67;;;;;;;;;;5035366;28;20226;-86